createdAt,value
2023-03-15T00:00:10.957Z,8.10
2023-03-15T00:01:10.924Z,8.14
2023-03-15T00:02:10.947Z,8.07
2023-03-15T00:03:10.894Z,7.95
2023-03-15T00:04:10.876Z,7.92
2023-03-15T00:05:10.870Z,7.94
2023-03-15T00:06:10.850Z,8.00
2023-03-15T00:07:10.833Z,8.14
2023-03-15T00:08:10.815Z,8.27
2023-03-15T00:09:10.801Z,8.21
2023-03-15T00:10:10.788Z,8.28
2023-03-15T00:11:10.770Z,8.00
2023-03-15T00:12:10.756Z,7.94
2023-03-15T00:13:10.748Z,8.02
2023-03-15T00:14:10.732Z,7.94
2023-03-15T00:15:10.712Z,7.94
2023-03-15T00:16:10.736Z,7.94
2023-03-15T00:17:10.680Z,7.95
2023-03-15T00:18:10.667Z,8.00
2023-03-15T00:19:10.647Z,8.18
2023-03-15T00:20:10.639Z,8.24
2023-03-15T00:21:10.619Z,8.29
2023-03-15T00:22:10.599Z,8.31
2023-03-15T00:23:10.586Z,8.04
2023-03-15T00:24:10.569Z,8.10
2023-03-15T00:25:10.555Z,8.04
2023-03-15T00:26:10.537Z,8.37
2023-03-15T00:27:10.527Z,8.31
2023-03-15T00:28:10.511Z,8.34
2023-03-15T00:29:10.491Z,8.43
2023-03-15T00:30:10.478Z,8.36
2023-03-15T00:31:10.518Z,8.31
2023-03-15T00:32:10.468Z,8.42
2023-03-15T00:33:10.432Z,8.39
2023-03-15T00:34:10.417Z,8.36
2023-03-15T00:35:10.404Z,8.42
2023-03-15T00:36:10.461Z,8.34
2023-03-15T00:37:10.371Z,8.31
2023-03-15T00:38:10.379Z,8.31
2023-03-15T00:39:10.341Z,8.28
2023-03-15T00:40:10.325Z,8.24
2023-03-15T00:41:10.308Z,8.42
2023-03-15T00:42:10.298Z,8.42
2023-03-15T00:43:10.278Z,8.32
2023-03-15T00:44:10.267Z,8.21
2023-03-15T00:45:10.247Z,8.25
2023-03-15T00:46:10.262Z,8.04
2023-03-15T00:47:10.215Z,8.09
2023-03-15T00:48:10.230Z,7.94
2023-03-15T00:49:10.193Z,7.95
2023-03-15T00:50:10.183Z,8.04
2023-03-15T00:51:10.154Z,8.17
2023-03-15T00:52:10.143Z,8.24
2023-03-15T00:53:10.129Z,8.46
2023-03-15T00:54:10.113Z,8.25
2023-03-15T00:55:10.093Z,8.28
2023-03-15T00:56:10.087Z,8.20
2023-03-15T00:57:10.062Z,8.10
2023-03-15T00:58:10.052Z,8.00
2023-03-15T00:59:10.044Z,7.95
2023-03-15T01:00:10.031Z,7.99
2023-03-15T01:01:10.003Z,8.10
2023-03-15T01:02:10.078Z,8.07
2023-03-15T01:03:10.061Z,8.10
2023-03-15T01:04:09.982Z,7.85
2023-03-15T01:05:09.945Z,7.88
2023-03-15T01:06:09.929Z,8.06
2023-03-15T01:07:09.927Z,8.34
2023-03-15T01:08:09.895Z,8.18
2023-03-15T01:09:09.878Z,7.95
2023-03-15T01:10:09.868Z,8.13
2023-03-15T01:11:09.845Z,8.13
2023-03-15T01:12:09.834Z,7.99
2023-03-15T01:13:09.816Z,8.03
2023-03-15T01:14:09.827Z,8.09
2023-03-15T01:15:09.782Z,8.07
2023-03-15T01:16:09.837Z,8.04
2023-03-15T01:17:09.759Z,7.95
2023-03-15T01:18:09.746Z,7.99
2023-03-15T01:19:09.721Z,7.77
2023-03-15T01:20:09.731Z,7.81
2023-03-15T01:21:09.702Z,7.69
2023-03-15T01:22:09.678Z,7.74
2023-03-15T01:23:09.661Z,7.82
2023-03-15T01:24:09.648Z,7.81
2023-03-15T01:25:09.643Z,7.79
2023-03-15T01:26:09.615Z,7.92
2023-03-15T01:27:09.596Z,7.99
2023-03-15T01:28:09.617Z,7.92
2023-03-15T01:29:09.570Z,7.94
2023-03-15T01:30:09.553Z,7.92
2023-03-15T01:31:09.600Z,7.95
2023-03-15T01:32:09.527Z,7.92
2023-03-15T01:33:09.525Z,7.79
2023-03-15T01:34:09.535Z,7.66
2023-03-15T01:35:09.475Z,7.58
2023-03-15T01:36:09.573Z,7.45
2023-03-15T01:37:09.442Z,7.36
2023-03-15T01:38:09.439Z,7.39
2023-03-15T01:39:09.412Z,7.36
2023-03-15T01:40:09.403Z,7.30
2023-03-15T01:41:09.383Z,7.12
2023-03-15T01:42:09.367Z,7.21
2023-03-15T01:43:09.346Z,7.27
2023-03-15T01:44:09.334Z,7.24
2023-03-15T01:45:09.318Z,7.12
2023-03-15T01:46:09.302Z,7.07
2023-03-15T01:47:09.359Z,7.12
2023-03-15T01:48:09.272Z,7.19
2023-03-15T01:49:09.253Z,7.18
2023-03-15T01:50:09.241Z,6.99
2023-03-15T01:51:09.225Z,7.00
2023-03-15T01:52:09.232Z,6.93
2023-03-15T01:53:09.392Z,7.08
2023-03-15T01:54:09.180Z,7.23
2023-03-15T01:55:09.157Z,7.16
2023-03-15T01:56:09.146Z,7.24
2023-03-15T01:57:09.126Z,7.19
2023-03-15T01:58:09.115Z,7.39
2023-03-15T01:59:09.095Z,7.45
2023-03-15T02:00:09.079Z,7.42
2023-03-15T02:01:09.127Z,7.36
2023-03-15T02:02:09.077Z,7.24
2023-03-15T02:03:09.035Z,7.42
2023-03-15T02:04:09.020Z,7.21
2023-03-15T02:05:08.999Z,7.08
2023-03-15T02:06:08.986Z,6.93
2023-03-15T02:07:08.983Z,6.82
2023-03-15T02:08:08.983Z,6.79
2023-03-15T02:09:08.935Z,6.65
2023-03-15T02:11:08.905Z,6.43
2023-03-15T02:12:08.887Z,6.33
2023-03-15T02:13:08.873Z,6.20
2023-03-15T02:14:08.855Z,6.19
2023-03-15T02:15:08.842Z,6.21
2023-03-15T02:16:08.889Z,6.17
2023-03-15T02:17:08.811Z,6.20
2023-03-15T02:18:08.798Z,6.03
2023-03-15T02:19:08.985Z,6.10
2023-03-15T02:20:08.786Z,6.06
2023-03-15T02:21:08.747Z,6.27
2023-03-15T02:22:08.739Z,6.21
2023-03-15T02:23:08.714Z,6.01
2023-03-15T02:24:08.721Z,5.95
2023-03-15T02:25:08.683Z,5.98
2023-03-15T02:26:08.664Z,5.93
2023-03-15T02:27:08.701Z,5.87
2023-03-15T02:28:08.632Z,5.74
2023-03-15T02:29:08.620Z,6.01
2023-03-15T02:30:08.599Z,6.11
2023-03-15T02:31:08.587Z,6.30
2023-03-15T02:32:08.568Z,6.40
2023-03-15T02:33:08.556Z,6.86
2023-03-15T02:34:08.544Z,7.07
2023-03-15T02:35:08.529Z,7.00
2023-03-15T02:36:08.536Z,7.11
2023-03-15T02:37:08.492Z,7.16
2023-03-15T02:38:08.475Z,7.00
2023-03-15T02:39:08.462Z,6.83
2023-03-15T02:40:08.470Z,6.72
2023-03-15T02:41:08.433Z,6.69
2023-03-15T02:42:08.408Z,6.72
2023-03-15T02:43:08.393Z,6.51
2023-03-15T02:44:08.375Z,6.65
2023-03-15T02:45:08.369Z,6.73
2023-03-15T02:46:08.409Z,6.71
2023-03-15T02:47:08.330Z,6.53
2023-03-15T02:48:08.310Z,6.65
2023-03-15T02:49:08.301Z,6.61
2023-03-15T02:50:08.286Z,6.54
2023-03-15T02:51:08.270Z,6.40
2023-03-15T02:52:08.250Z,6.33
2023-03-15T02:53:08.240Z,6.28
2023-03-15T02:54:08.425Z,6.11
2023-03-15T02:55:08.209Z,5.83
2023-03-15T02:56:08.208Z,5.85
2023-03-15T02:57:08.172Z,5.66
2023-03-15T02:58:08.154Z,5.51
2023-03-15T02:59:08.136Z,5.69
2023-03-15T03:00:08.120Z,5.80
2023-03-15T03:01:08.162Z,5.73
2023-03-15T03:02:08.097Z,5.60
2023-03-15T03:03:08.081Z,5.69
2023-03-15T03:04:08.052Z,5.69
2023-03-15T03:05:08.044Z,5.74
2023-03-15T03:06:08.029Z,5.81
2023-03-15T03:07:08.034Z,5.90
2023-03-15T03:08:08.021Z,5.83
2023-03-15T03:09:07.996Z,5.67
2023-03-15T03:10:07.972Z,5.69
2023-03-15T03:11:07.948Z,5.51
2023-03-15T03:12:07.992Z,5.45
2023-03-15T03:13:07.919Z,5.35
2023-03-15T03:14:07.893Z,5.38
2023-03-15T03:15:07.882Z,5.20
2023-03-15T03:16:07.861Z,4.93
2023-03-15T03:17:07.848Z,4.84
2023-03-15T03:18:07.828Z,4.86
2023-03-15T03:19:07.813Z,4.80
2023-03-15T03:20:07.793Z,4.69
2023-03-15T03:21:07.782Z,4.64
2023-03-15T03:22:07.761Z,4.69
2023-03-15T03:23:07.747Z,4.57
2023-03-15T03:24:07.725Z,4.51
2023-03-15T03:25:07.712Z,4.36
2023-03-15T03:26:07.693Z,4.36
2023-03-15T03:27:07.678Z,4.32
2023-03-15T03:28:07.677Z,4.43
2023-03-15T03:29:07.659Z,4.43
2023-03-15T03:30:07.630Z,4.32
2023-03-15T03:31:07.697Z,4.28
2023-03-15T03:32:07.589Z,4.25
2023-03-15T03:33:07.575Z,4.20
2023-03-15T03:34:07.759Z,4.18
2023-03-15T03:35:07.542Z,4.21
2023-03-15T03:36:07.550Z,4.34
2023-03-15T03:37:07.510Z,4.18
2023-03-15T03:38:07.493Z,4.21
2023-03-15T03:39:07.474Z,4.46
2023-03-15T03:40:07.456Z,4.56
2023-03-15T03:41:07.444Z,4.68
2023-03-15T03:42:07.429Z,4.77
2023-03-15T03:43:07.407Z,4.79
2023-03-15T03:44:07.419Z,4.69
2023-03-15T03:45:07.381Z,4.72
2023-03-15T03:46:07.430Z,4.77
2023-03-15T03:47:07.342Z,4.84
2023-03-15T03:48:07.321Z,4.99
2023-03-15T03:49:07.306Z,4.97
2023-03-15T03:50:07.287Z,4.91
2023-03-15T03:51:07.272Z,4.87
2023-03-15T03:52:07.254Z,4.75
2023-03-15T03:53:07.240Z,4.69
2023-03-15T03:54:07.221Z,4.65
2023-03-15T03:55:07.225Z,4.67
2023-03-15T03:56:07.195Z,4.61
2023-03-15T03:57:07.181Z,4.62
2023-03-15T03:58:07.156Z,4.68
2023-03-15T03:59:07.139Z,4.62
2023-03-15T04:00:07.136Z,4.65
2023-03-15T04:01:07.106Z,4.57
2023-03-15T04:02:07.089Z,4.54
2023-03-15T04:03:07.072Z,4.54
2023-03-15T04:04:07.050Z,4.64
2023-03-15T04:05:07.042Z,4.64
2023-03-15T04:06:07.023Z,4.69
2023-03-15T04:07:07.005Z,4.74
2023-03-15T04:08:06.987Z,4.64
2023-03-15T04:09:06.973Z,4.67
2023-03-15T04:10:06.957Z,4.57
2023-03-15T04:11:06.938Z,4.51
2023-03-15T04:12:06.945Z,4.62
2023-03-15T04:13:06.905Z,4.56
2023-03-15T04:14:06.885Z,4.65
2023-03-15T04:15:06.872Z,4.68
2023-03-15T04:16:07.069Z,4.88
2023-03-15T04:17:06.836Z,4.84
2023-03-15T04:18:06.819Z,4.91
2023-03-15T04:19:06.808Z,4.84
2023-03-15T04:20:06.785Z,4.90
2023-03-15T04:21:06.773Z,4.80
2023-03-15T04:22:06.805Z,4.84
2023-03-15T04:23:06.743Z,4.88
2023-03-15T04:24:06.721Z,5.01
2023-03-15T04:25:06.708Z,4.93
2023-03-15T04:26:06.704Z,4.96
2023-03-15T04:27:06.676Z,4.87
2023-03-15T04:28:06.654Z,4.86
2023-03-15T04:29:06.645Z,4.80
2023-03-15T04:30:06.625Z,4.80
2023-03-15T04:31:06.644Z,4.75
2023-03-15T04:32:06.614Z,4.71
2023-03-15T04:33:06.582Z,4.75
2023-03-15T04:34:06.560Z,4.75
2023-03-15T04:35:06.548Z,4.75
2023-03-15T04:36:06.570Z,4.75
2023-03-15T04:37:06.526Z,4.65
2023-03-15T04:38:06.496Z,4.68
2023-03-15T04:39:06.481Z,4.71
2023-03-15T04:40:06.462Z,5.02
2023-03-15T04:41:06.453Z,4.88
2023-03-15T04:42:06.430Z,5.04
2023-03-15T04:43:06.428Z,4.97
2023-03-15T04:44:06.397Z,4.88
2023-03-15T04:45:06.384Z,4.87
2023-03-15T04:46:06.376Z,4.91
2023-03-15T04:47:06.444Z,4.80
2023-03-15T04:48:06.353Z,4.90
2023-03-15T04:49:06.318Z,5.02
2023-03-15T04:50:06.303Z,5.12
2023-03-15T04:51:06.287Z,5.15
2023-03-15T04:52:06.275Z,5.24
2023-03-15T04:53:06.251Z,5.11
2023-03-15T04:54:06.238Z,5.04
2023-03-15T04:55:06.218Z,5.05
2023-03-15T04:56:06.205Z,5.14
2023-03-15T04:57:06.186Z,5.05
2023-03-15T04:58:06.172Z,5.05
2023-03-15T04:59:06.156Z,5.05
2023-03-15T05:00:06.137Z,5.19
2023-03-15T05:01:06.169Z,5.17
2023-03-15T05:02:06.150Z,5.15
2023-03-15T05:03:06.096Z,5.08
2023-03-15T05:04:06.092Z,5.05
2023-03-15T05:05:06.058Z,5.06
2023-03-15T05:06:06.043Z,5.22
2023-03-15T05:07:06.024Z,5.20
2023-03-15T05:08:06.011Z,5.19
2023-03-15T05:09:05.989Z,5.20
2023-03-15T05:10:05.979Z,5.19
2023-03-15T05:11:05.955Z,5.08
2023-03-15T05:12:05.942Z,5.08
2023-03-15T05:13:05.921Z,5.05
2023-03-15T05:14:05.908Z,4.94
2023-03-15T05:15:05.945Z,4.86
2023-03-15T05:16:05.991Z,4.79
2023-03-15T05:17:05.858Z,4.80
2023-03-15T05:18:05.843Z,4.79
2023-03-15T05:19:05.820Z,4.69
2023-03-15T05:20:05.828Z,4.74
2023-03-15T05:21:05.789Z,4.69
2023-03-15T05:22:05.776Z,4.61
2023-03-15T05:23:05.757Z,4.83
2023-03-15T05:24:05.749Z,5.27
2023-03-15T05:25:05.724Z,5.11
2023-03-15T05:26:05.709Z,5.09
2023-03-15T05:27:05.693Z,5.08
2023-03-15T05:28:05.675Z,4.91
2023-03-15T05:29:05.666Z,4.72
2023-03-15T05:30:05.649Z,4.68
2023-03-15T05:31:05.683Z,4.65
2023-03-15T05:32:05.728Z,4.59
2023-03-15T05:33:05.593Z,4.50
2023-03-15T05:34:05.577Z,4.47
2023-03-15T05:35:05.557Z,4.35
2023-03-15T05:36:05.561Z,4.36
2023-03-15T05:37:05.522Z,4.25
2023-03-15T05:38:05.510Z,4.13
2023-03-15T05:39:05.495Z,4.14
2023-03-15T05:40:05.477Z,4.07
2023-03-15T05:41:05.454Z,4.00
2023-03-15T05:42:05.491Z,3.93
2023-03-15T05:43:05.420Z,4.10
2023-03-15T05:44:05.408Z,4.08
2023-03-15T05:45:05.403Z,4.34
2023-03-15T05:46:05.481Z,4.35
2023-03-15T05:47:05.354Z,4.44
2023-03-15T05:48:05.342Z,4.39
2023-03-15T05:49:05.322Z,4.56
2023-03-15T05:50:05.307Z,4.28
2023-03-15T05:51:05.286Z,4.35
2023-03-15T05:52:05.301Z,4.31
2023-03-15T05:53:05.261Z,4.34
2023-03-15T05:54:05.239Z,4.38
2023-03-15T05:55:05.237Z,4.26
2023-03-15T05:56:05.203Z,4.35
2023-03-15T05:57:05.186Z,4.34
2023-03-15T05:58:05.172Z,4.17
2023-03-15T05:59:05.154Z,4.14
2023-03-15T06:00:05.146Z,4.04
2023-03-15T06:01:05.114Z,3.95
2023-03-15T06:02:05.100Z,3.93
2023-03-15T06:03:05.118Z,3.89
2023-03-15T06:04:05.131Z,3.98
2023-03-15T06:05:05.044Z,4.16
2023-03-15T06:06:05.050Z,4.14
2023-03-15T06:07:05.011Z,4.20
2023-03-15T06:08:05.128Z,4.18
2023-03-15T06:09:04.979Z,4.29
2023-03-15T06:10:04.978Z,4.16
2023-03-15T06:11:04.949Z,4.14
2023-03-15T06:12:04.940Z,4.18
2023-03-15T06:13:04.937Z,4.32
2023-03-15T06:14:04.942Z,4.35
2023-03-15T06:15:04.876Z,4.32
2023-03-15T06:16:04.863Z,4.43
2023-03-15T06:17:04.876Z,4.43
2023-03-15T06:18:04.830Z,4.34
2023-03-15T06:19:04.809Z,4.35
2023-03-15T06:20:04.798Z,4.36
2023-03-15T06:21:04.781Z,4.35
2023-03-15T06:22:04.761Z,4.46
2023-03-15T06:23:04.740Z,4.39
2023-03-15T06:24:04.746Z,4.32
2023-03-15T06:25:04.706Z,4.32
2023-03-15T06:26:04.693Z,4.42
2023-03-15T06:27:04.676Z,4.32
2023-03-15T06:28:04.657Z,4.26
2023-03-15T06:29:04.645Z,4.25
2023-03-15T06:30:04.630Z,4.26
2023-03-15T06:31:04.663Z,4.38
2023-03-15T06:32:04.595Z,4.46
2023-03-15T06:33:04.626Z,4.43
2023-03-15T06:34:04.557Z,4.42
2023-03-15T06:35:04.542Z,4.39
2023-03-15T06:36:04.583Z,4.32
2023-03-15T06:37:04.501Z,4.46
2023-03-15T06:38:04.490Z,4.35
2023-03-15T06:39:04.463Z,4.46
2023-03-15T06:40:04.475Z,4.46
2023-03-15T06:41:04.440Z,4.38
2023-03-15T06:42:04.426Z,4.36
2023-03-15T06:43:04.418Z,4.28
2023-03-15T06:44:04.385Z,4.21
2023-03-15T06:45:04.373Z,4.20
2023-03-15T06:46:04.382Z,4.20
2023-03-15T06:47:04.333Z,4.11
2023-03-15T06:48:04.323Z,4.18
2023-03-15T06:49:04.300Z,4.20
2023-03-15T06:50:04.284Z,4.20
2023-03-15T06:51:04.262Z,4.43
2023-03-15T06:52:04.249Z,4.42
2023-03-15T06:53:04.232Z,4.67
2023-03-15T06:54:04.220Z,4.79
2023-03-15T06:55:04.193Z,4.83
2023-03-15T06:56:04.216Z,5.02
2023-03-15T06:57:04.164Z,5.17
2023-03-15T06:58:04.178Z,5.06
2023-03-15T06:59:04.127Z,5.27
2023-03-15T07:00:04.114Z,5.24
2023-03-15T07:01:04.094Z,5.27
2023-03-15T07:02:04.084Z,5.33
2023-03-15T07:03:04.090Z,5.40
2023-03-15T07:04:04.184Z,5.49
2023-03-15T07:05:04.042Z,5.59
2023-03-15T07:06:04.016Z,5.73
2023-03-15T07:07:03.999Z,5.81
2023-03-15T07:08:03.986Z,5.87
2023-03-15T07:09:03.962Z,6.05
2023-03-15T07:10:03.954Z,6.16
2023-03-15T07:11:03.931Z,6.19
2023-03-15T07:12:03.943Z,6.25
2023-03-15T07:13:03.900Z,6.40
2023-03-15T07:14:03.888Z,6.43
2023-03-15T07:15:03.868Z,6.58
2023-03-15T07:16:03.999Z,6.61
2023-03-15T07:17:03.851Z,6.71
2023-03-15T07:18:03.839Z,6.75
2023-03-15T07:19:03.813Z,6.75
2023-03-15T07:20:03.794Z,6.82
2023-03-15T07:21:03.770Z,6.73
2023-03-15T07:22:03.784Z,6.71
2023-03-15T07:23:03.750Z,6.68
2023-03-15T07:24:03.725Z,6.71
2023-03-15T07:25:03.712Z,6.71
2023-03-15T07:26:03.693Z,6.78
2023-03-15T07:27:03.672Z,6.99
2023-03-15T07:28:03.688Z,7.04
2023-03-15T07:29:03.650Z,6.99
2023-03-15T07:30:03.630Z,7.07
2023-03-15T07:31:03.610Z,7.12
2023-03-15T07:32:03.663Z,7.12
2023-03-15T07:33:03.647Z,7.11
2023-03-15T07:34:03.572Z,7.08
2023-03-15T07:35:03.569Z,7.14
2023-03-15T07:36:03.597Z,7.27
2023-03-15T07:37:03.522Z,7.23
2023-03-15T07:38:03.505Z,7.41
2023-03-15T07:39:03.490Z,7.37
2023-03-15T07:40:03.476Z,7.50
2023-03-15T07:41:03.450Z,7.48
2023-03-15T07:42:03.441Z,7.57
2023-03-15T07:43:03.431Z,7.69
2023-03-15T07:44:03.457Z,7.67
2023-03-15T07:45:03.397Z,7.73
2023-03-15T07:46:03.384Z,7.88
2023-03-15T07:47:03.357Z,7.91
2023-03-15T07:48:03.342Z,8.00
2023-03-15T07:49:03.326Z,8.18
2023-03-15T07:50:03.323Z,8.14
2023-03-15T07:51:03.316Z,8.34
2023-03-15T07:52:03.287Z,8.31
2023-03-15T07:53:03.265Z,8.29
2023-03-15T07:54:03.249Z,8.31
2023-03-15T07:55:03.236Z,8.34
2023-03-15T07:56:03.220Z,8.57
2023-03-15T07:57:03.203Z,8.52
2023-03-15T07:58:03.194Z,8.65
2023-03-15T07:59:03.169Z,8.71
2023-03-15T08:00:03.178Z,8.71
2023-03-15T08:01:03.150Z,8.91
2023-03-15T08:02:03.430Z,8.83
2023-03-15T08:03:03.211Z,8.97
2023-03-15T08:04:03.123Z,8.96
2023-03-15T08:05:03.079Z,9.08
2023-03-15T08:06:03.069Z,9.15
2023-03-15T08:07:03.052Z,9.26
2023-03-15T08:08:03.045Z,9.32
2023-03-15T08:09:03.024Z,9.45
2023-03-15T08:10:03.011Z,9.48
2023-03-15T08:11:03.002Z,9.59
2023-03-15T08:12:03.036Z,9.59
2023-03-15T08:13:02.966Z,9.55
2023-03-15T08:14:02.952Z,9.58
2023-03-15T08:15:02.937Z,9.55
2023-03-15T08:16:02.996Z,9.58
2023-03-15T08:17:02.904Z,9.59
2023-03-15T08:18:04.199Z,9.58
2023-03-15T08:19:02.872Z,9.56
2023-03-15T08:20:02.872Z,9.58
2023-03-15T08:21:02.847Z,9.59
2023-03-15T08:22:02.833Z,9.60
2023-03-15T08:23:02.819Z,9.73
2023-03-15T08:24:02.810Z,9.65
2023-03-15T08:25:02.791Z,9.73
2023-03-15T08:26:02.783Z,9.78
2023-03-15T08:27:02.764Z,9.81
2023-03-15T08:28:02.757Z,9.86
2023-03-15T08:29:02.731Z,9.86
2023-03-15T08:30:02.724Z,9.95
2023-03-15T08:31:02.702Z,9.89
2023-03-15T08:32:02.762Z,9.88
2023-03-15T08:33:02.765Z,9.99
2023-03-15T08:34:02.665Z,10.02
2023-03-15T08:35:02.646Z,10.06
2023-03-15T08:36:02.663Z,10.02
2023-03-15T08:37:02.618Z,10.06
2023-03-15T08:38:02.640Z,10.16
2023-03-15T08:39:02.590Z,10.14
2023-03-15T08:40:02.616Z,10.16
2023-03-15T08:41:02.563Z,10.26
2023-03-15T08:42:02.556Z,10.28
2023-03-15T08:43:02.533Z,10.24
2023-03-15T08:44:02.522Z,10.39
2023-03-15T08:45:02.534Z,10.36
2023-03-15T08:46:02.575Z,10.42
2023-03-15T08:47:02.500Z,10.55
2023-03-15T08:48:02.485Z,10.62
2023-03-15T08:49:02.450Z,10.38
2023-03-15T08:50:02.448Z,10.39
2023-03-15T08:51:02.453Z,10.38
2023-03-15T08:52:02.410Z,10.36
2023-03-15T08:53:02.394Z,10.46
2023-03-15T08:54:02.432Z,10.62
2023-03-15T08:55:02.366Z,10.65
2023-03-15T08:56:02.670Z,10.72
2023-03-15T08:57:02.339Z,10.69
2023-03-15T08:58:04.392Z,10.69
2023-03-15T08:59:02.319Z,10.69
2023-03-15T09:00:02.304Z,10.54
2023-03-15T09:01:02.301Z,10.55
2023-03-15T09:02:02.316Z,10.57
2023-03-15T09:03:02.259Z,10.55
2023-03-15T09:04:02.280Z,10.68
2023-03-15T09:05:02.231Z,10.65
2023-03-15T09:06:02.222Z,10.68
2023-03-15T09:07:02.204Z,10.80
2023-03-15T09:08:02.198Z,10.73
2023-03-15T09:09:02.185Z,10.86
2023-03-15T09:10:05.296Z,10.70
2023-03-15T09:11:02.148Z,10.72
2023-03-15T09:12:02.133Z,10.76
2023-03-15T09:13:02.126Z,10.93
2023-03-15T09:14:02.104Z,10.94
2023-03-15T09:15:02.100Z,11.09
2023-03-15T09:16:02.081Z,10.95
2023-03-15T09:17:02.178Z,10.84
2023-03-15T09:18:02.051Z,10.80
2023-03-15T09:19:02.048Z,10.75
2023-03-15T09:20:02.103Z,10.84
2023-03-15T09:21:02.018Z,10.68
2023-03-15T09:22:16.064Z,10.69
2023-03-15T09:23:01.990Z,10.80
2023-03-15T09:24:01.975Z,10.84
2023-03-15T09:25:01.975Z,10.95
2023-03-15T09:26:01.949Z,10.98
2023-03-15T09:27:02.153Z,11.03
2023-03-15T09:28:01.924Z,11.05
2023-03-15T09:29:01.917Z,11.23
2023-03-15T09:30:01.895Z,11.27
2023-03-15T09:31:01.919Z,11.21
2023-03-15T09:32:01.870Z,11.36
2023-03-15T09:33:01.924Z,11.26
2023-03-15T09:34:01.846Z,11.26
2023-03-15T09:35:01.837Z,11.35
2023-03-15T09:36:01.899Z,11.23
2023-03-15T09:37:01.825Z,11.06
2023-03-15T09:38:01.794Z,11.08
2023-03-15T09:39:01.786Z,11.03
2023-03-15T09:40:01.778Z,11.03
2023-03-15T09:41:01.754Z,11.11
2023-03-15T09:42:01.744Z,10.98
2023-03-15T09:43:01.748Z,10.94
2023-03-15T09:44:01.718Z,10.78
2023-03-15T09:45:01.704Z,10.84
2023-03-15T09:46:01.738Z,10.93
2023-03-15T09:47:01.679Z,11.03
2023-03-15T09:48:01.665Z,10.84
2023-03-15T09:49:01.652Z,10.84
2023-03-15T09:50:01.635Z,11.01
2023-03-15T09:51:01.624Z,10.83
2023-03-15T09:52:01.634Z,10.95
2023-03-15T09:53:01.600Z,10.94
2023-03-15T09:54:01.590Z,10.94
2023-03-15T09:55:01.576Z,11.01
2023-03-15T09:56:01.558Z,11.16
2023-03-15T09:57:01.544Z,11.17
2023-03-15T09:58:01.550Z,11.19
2023-03-15T09:59:01.518Z,11.36
2023-03-15T10:00:01.545Z,11.49
2023-03-15T10:01:01.496Z,11.48
2023-03-15T10:02:01.517Z,11.67
2023-03-15T10:03:01.497Z,11.75
2023-03-15T10:04:01.501Z,11.85
2023-03-15T10:05:01.466Z,11.82
2023-03-15T10:06:01.443Z,11.98
2023-03-15T10:07:01.411Z,12.04
2023-03-15T10:08:01.416Z,12.13
2023-03-15T10:09:01.386Z,12.12
2023-03-15T10:10:01.408Z,12.33
2023-03-15T10:11:01.360Z,12.38
2023-03-15T10:12:01.346Z,12.36
2023-03-15T10:13:01.337Z,12.30
2023-03-15T10:14:01.331Z,12.26
2023-03-15T10:15:01.319Z,12.41
2023-03-15T10:16:01.354Z,12.38
2023-03-15T10:17:01.284Z,12.38
2023-03-15T10:18:01.270Z,12.33
2023-03-15T10:19:01.260Z,12.38
2023-03-15T10:20:01.318Z,12.38
2023-03-15T10:21:01.238Z,12.44
2023-03-15T10:22:01.219Z,12.30
2023-03-15T10:23:01.209Z,12.40
2023-03-15T10:24:01.220Z,12.37
2023-03-15T10:25:01.184Z,12.54
2023-03-15T10:26:01.169Z,12.61
2023-03-15T10:27:01.181Z,12.62
2023-03-15T10:28:01.162Z,12.63
2023-03-15T10:29:01.143Z,12.62
2023-03-15T10:30:01.127Z,12.56
2023-03-15T10:31:01.266Z,12.52
2023-03-15T10:32:01.179Z,12.61
2023-03-15T10:33:01.128Z,12.62
2023-03-15T10:34:01.066Z,12.66
2023-03-15T10:35:01.071Z,12.59
2023-03-15T10:36:11.301Z,12.58
2023-03-15T10:37:01.043Z,12.77
2023-03-15T10:38:01.018Z,12.94
2023-03-15T10:39:01.007Z,12.95
2023-03-15T10:40:01.025Z,13.12
2023-03-15T10:41:01.054Z,13.21
2023-03-15T10:42:00.967Z,13.29
2023-03-15T10:43:00.956Z,13.31
2023-03-15T10:44:00.952Z,13.35
2023-03-15T10:45:00.930Z,13.27
2023-03-15T10:46:00.927Z,13.39
2023-03-15T10:47:02.957Z,13.35
2023-03-15T10:48:01.234Z,13.25
2023-03-15T10:49:00.885Z,13.06
2023-03-15T10:50:00.867Z,12.96
2023-03-15T10:51:00.857Z,12.94
2023-03-15T10:52:00.842Z,12.94
2023-03-15T10:53:00.833Z,12.69
2023-03-15T10:54:00.818Z,12.67
2023-03-15T10:55:04.381Z,12.73
2023-03-15T10:56:00.825Z,12.91
2023-03-15T10:57:00.789Z,12.84
2023-03-15T10:58:00.774Z,12.77
2023-03-15T10:59:12.053Z,12.76
2023-03-15T11:00:00.748Z,12.89
2023-03-15T11:01:00.747Z,12.80
2023-03-15T11:02:00.764Z,12.96
2023-03-15T11:03:00.841Z,13.10
2023-03-15T11:04:00.702Z,13.28
2023-03-15T11:05:00.688Z,13.38
2023-03-15T11:06:00.682Z,13.44
2023-03-15T11:07:00.678Z,13.50
2023-03-15T11:08:00.659Z,13.36
2023-03-15T11:09:00.647Z,13.06
2023-03-15T11:10:00.641Z,12.94
2023-03-15T11:11:00.630Z,12.94
2023-03-15T11:12:00.630Z,12.89
2023-03-15T11:13:00.598Z,12.91
2023-03-15T11:14:00.640Z,12.74
2023-03-15T11:15:00.582Z,12.63
2023-03-15T11:16:00.598Z,12.52
2023-03-15T11:17:00.548Z,12.38
2023-03-15T11:18:00.533Z,12.43
2023-03-15T11:19:00.529Z,12.31
2023-03-15T11:20:00.509Z,12.18
2023-03-15T11:21:00.501Z,12.11
2023-03-15T11:22:00.486Z,11.84
2023-03-15T11:23:00.481Z,11.74
2023-03-15T11:24:00.460Z,11.49
2023-03-15T11:25:00.486Z,11.41
2023-03-15T11:26:00.440Z,11.35
2023-03-15T11:27:00.426Z,11.48
2023-03-15T11:28:00.449Z,11.38
2023-03-15T11:29:00.408Z,11.26
2023-03-15T11:30:00.390Z,11.12
2023-03-15T11:31:00.379Z,11.05
2023-03-15T11:32:00.357Z,11.17
2023-03-15T11:33:00.401Z,11.09
2023-03-15T11:34:00.335Z,11.26
2023-03-15T11:35:00.322Z,11.45
2023-03-15T11:36:00.339Z,11.85
2023-03-15T11:37:08.049Z,11.85
2023-03-15T11:38:12.942Z,11.64
2023-03-15T11:39:02.862Z,11.82
2023-03-15T11:40:10.577Z,11.82
2023-03-15T11:41:00.250Z,11.85
2023-03-15T11:42:00.239Z,12.04
2023-03-15T11:43:00.251Z,12.13
2023-03-15T11:44:00.240Z,12.25
2023-03-15T11:45:00.203Z,12.40
2023-03-15T11:46:00.326Z,12.49
2023-03-15T11:47:00.217Z,12.55
2023-03-15T11:48:00.181Z,12.38
2023-03-15T11:49:00.154Z,12.33
2023-03-15T11:50:00.150Z,12.40
2023-03-15T11:51:00.134Z,12.62
2023-03-15T11:52:00.117Z,12.55
2023-03-15T11:53:00.105Z,12.58
2023-03-15T11:54:00.093Z,12.21
2023-03-15T11:55:00.079Z,12.40
2023-03-15T11:56:00.066Z,12.40
2023-03-15T11:57:00.055Z,12.58
2023-03-15T11:58:00.040Z,12.77
2023-03-15T11:59:01.112Z,12.96
2023-03-15T12:00:00.204Z,13.14
2023-03-15T12:01:00.007Z,13.27
2023-03-15T12:02:00.085Z,13.51
2023-03-15T12:03:00.051Z,13.59
2023-03-15T12:03:59.971Z,13.65
2023-03-15T12:05:06.321Z,13.68
2023-03-15T12:05:59.944Z,13.83
2023-03-15T12:06:59.934Z,13.80
2023-03-15T12:07:59.923Z,13.79
2023-03-15T12:08:59.922Z,13.29
2023-03-15T12:09:59.897Z,13.06
2023-03-15T12:10:59.887Z,12.89
2023-03-15T12:11:59.888Z,13.13
2023-03-15T12:12:59.874Z,13.16
2023-03-15T12:13:59.868Z,12.96
2023-03-15T12:14:59.857Z,12.77
2023-03-15T12:16:59.934Z,12.88
2023-03-15T12:17:59.808Z,13.09
2023-03-15T12:18:59.791Z,12.95
2023-03-15T12:19:59.781Z,12.56
2023-03-15T12:20:59.769Z,12.40
2023-03-15T12:21:59.759Z,12.40
2023-03-15T12:22:59.742Z,12.40
2023-03-15T12:23:59.734Z,12.18
2023-03-15T12:24:59.720Z,12.43
2023-03-15T12:25:59.718Z,12.55
2023-03-15T12:26:59.694Z,12.56
2023-03-15T12:27:59.687Z,12.74
2023-03-15T12:28:59.671Z,12.89
2023-03-15T12:29:59.666Z,13.13
2023-03-15T12:30:59.818Z,13.16
2023-03-15T12:31:59.648Z,13.16
2023-03-15T12:32:59.722Z,13.22
2023-03-15T12:33:59.613Z,13.27
2023-03-15T12:34:59.598Z,13.32
2023-03-15T12:35:59.632Z,13.31
2023-03-15T12:36:59.574Z,13.19
2023-03-15T12:37:59.567Z,12.74
2023-03-15T12:38:59.549Z,12.34
2023-03-15T12:39:59.540Z,11.96
2023-03-15T12:40:59.529Z,11.51
2023-03-15T12:41:59.518Z,11.27
2023-03-15T12:42:59.501Z,10.94
2023-03-15T12:43:59.493Z,10.86
2023-03-15T12:44:59.476Z,11.03
2023-03-15T12:45:59.496Z,11.06
2023-03-15T12:46:59.465Z,11.24
2023-03-15T12:47:59.441Z,11.38
2023-03-15T12:48:59.478Z,11.53
2023-03-15T12:49:59.419Z,11.59
2023-03-15T12:50:59.413Z,11.63
2023-03-15T12:51:59.668Z,11.67
2023-03-15T12:52:59.376Z,11.64
2023-03-15T12:53:59.369Z,11.39
2023-03-15T12:54:59.355Z,11.27
2023-03-15T12:56:07.913Z,11.38
2023-03-15T12:56:59.326Z,11.57
2023-03-15T12:57:59.316Z,11.74
2023-03-15T12:58:59.301Z,11.85
2023-03-15T12:59:59.294Z,12.08
2023-03-15T13:00:59.276Z,12.07
2023-03-15T13:01:59.267Z,12.30
2023-03-15T13:03:01.520Z,12.52
2023-03-15T13:03:59.243Z,12.77
2023-03-15T13:04:59.254Z,12.94
2023-03-15T13:06:03.837Z,12.96
2023-03-15T13:06:59.212Z,12.95
2023-03-15T13:07:59.198Z,12.85
2023-03-15T13:08:59.178Z,12.87
2023-03-15T13:09:59.170Z,12.96
2023-03-15T13:10:59.153Z,13.27